Time;durP1;ratioP1;P1;durP2;ratioP2;P2;SDS_P1;SDS_P2;PMS_P1;PMS_P2;Temp;Humidity;BMP_temperature;BMP_pressure;BME280_temperature;BME280_humidity;BME280_pressure;Samples;Min_cycle;Max_cycle;Signal;HPM_P1;HPM_P2
2022/06/19 00:02:16;;;;;;;;;;;;;;;15.59;86.80;100197.10;1671473;86;20221;-84
2022/06/19 00:05:21;;;;;;;;;;;;;;;15.54;86.90;100195.52;1656683;86;20162;-84
2022/06/19 00:08:20;;;;;;;;;;;;;;;15.51;87.04;100201.44;1670087;86;20225;-85
2022/06/19 00:11:14;;;;;;;;;;;;;;;15.50;87.12;100198.37;1671689;86;20229;-84
2022/06/19 00:14:01;;;;;;;;;;;;;;;15.47;87.18;100201.53;1671461;86;20667;-85
2022/06/19 00:16:54;;;;;;;;;;;;;;;15.43;87.26;100198.03;1670703;86;20229;-83
2022/06/19 00:19:59;;;;;;;;;;;;;;;15.40;87.32;100202.61;1664211;84;20193;-83
2022/06/19 00:23:04;;;;;;;;;;;;;;;15.36;87.49;100204.92;1697206;84;20218;-84
2022/06/19 00:26:11;;;;;;;;;;;;;;;15.34;87.87;100201.55;1665093;86;20238;-86
2022/06/19 00:29:15;;;;;;;;;;;;;;;15.32;88.07;100203.65;1740780;82;20236;-85
2022/06/19 00:32:20;;;;;;;;;;;;;;;15.29;88.31;100207.69;1741091;82;20607;-83
2022/06/19 00:35:29;;;;;;;;;;;;;;;15.28;88.59;100203.21;1740995;82;20189;-83
2022/06/19 00:38:32;;;;;;;;;;;;;;;15.29;88.90;100209.56;1739248;82;20233;-84
2022/06/19 00:41:44;;;;;;;;;;;;;;;15.29;89.22;100204.05;1740891;82;20737;-83
2022/06/19 00:44:49;;;;;;;;;;;;;;;15.29;89.35;100209.56;1739024;82;20658;-84
2022/06/19 00:47:52;;;;;;;;;;;;;;;15.30;89.32;100208.53;1739295;82;20225;-83
2022/06/19 00:51:05;;;;;;;;;;;;;;;15.28;89.06;100214.77;1738887;82;20229;-83
2022/06/19 00:54:06;;;;;;;;;;;;;;;15.24;88.76;100221.25;1741554;82;20587;-85
2022/06/19 00:57:11;;;;;;;;;;;;;;;15.19;89.10;100214.64;1740183;82;20217;-84
2022/06/19 01:00:23;;;;;;;;;;;;;;;15.16;89.57;100218.68;1740907;82;20641;-84
2022/06/19 01:03:26;;;;;;;;;;;;;;;15.15;89.64;100225.25;1740493;82;20237;-83
2022/06/19 01:06:31;;;;;;;;;;;;;;;15.09;89.46;100219.17;1739040;82;20229;-85
2022/06/19 01:09:36;;;;;;;;;;;;;;;15.02;89.70;100216.41;1720163;82;20260;-84
2022/06/19 01:12:40;;;;;;;;;;;;;;;14.99;90.14;100220.11;1740683;82;20221;-84
2022/06/19 01:15:44;;;;;;;;;;;;;;;15.00;90.66;100218.51;1759679;80;20599;-84
2022/06/19 01:18:42;;;;;;;;;;;;;;;15.01;91.05;100225.74;1740089;82;20241;-84
2022/06/19 01:22:01;;;;;;;;;;;;;;;15.01;91.17;100228.50;1724491;83;20202;-83
2022/06/19 01:25:14;;;;;;;;;;;;;;;15.00;91.21;100224.55;1694135;84;20616;-84
2022/06/19 01:31:52;;;;;;;;;;;;;;;14.99;91.42;100217.35;1727453;82;20212;-84
2022/06/19 01:34:56;;;;;;;;;;;;;;;15.00;91.53;100225.92;1746334;82;20197;-83
2022/06/19 01:38:00;;;;;;;;;;;;;;;14.99;91.25;100225.08;1745905;82;20201;-83
2022/06/19 01:41:06;;;;;;;;;;;;;;;14.99;91.20;100226.46;1746722;82;20520;-85
2022/06/19 01:44:11;;;;;;;;;;;;;;;14.99;91.06;100225.61;1745218;82;20237;-84
2022/06/19 01:47:15;;;;;;;;;;;;;;;14.97;91.02;100229.12;1746364;82;21030;-84
2022/06/19 01:50:21;;;;;;;;;;;;;;;14.96;91.04;100231.02;1745728;82;20225;-84
2022/06/19 01:53:43;;;;;;;;;;;;;;;14.97;90.95;100231.34;1746925;82;20181;-84
2022/06/19 01:56:48;;;;;;;;;;;;;;;14.98;90.81;100231.66;1746697;82;21198;-85
2022/06/19 01:59:51;;;;;;;;;;;;;;;15.11;90.87;100230.01;1745521;82;20621;-83
2022/06/19 02:03:09;;;;;;;;;;;;;;;15.40;90.61;100232.39;1696865;82;20266;-84
2022/06/19 02:06:15;;;;;;;;;;;;;;;15.77;89.10;100228.22;1684753;85;20231;-85
2022/06/19 02:09:07;;;;;;;;;;;;;;;16.25;87.46;100239.52;1664480;85;20199;-84
2022/06/19 02:12:12;;;;;;;;;;;;;;;16.69;85.24;100237.91;1684689;85;20254;-84
2022/06/19 02:15:18;;;;;;;;;;;;;;;17.07;83.33;100227.77;1683206;85;20262;-85
2022/06/19 02:18:26;;;;;;;;;;;;;;;17.48;81.71;100236.14;1715513;83;20224;-84
2022/06/19 02:21:26;;;;;;;;;;;;;;;17.87;79.62;100251.61;1722004;83;20466;-84
2022/06/19 02:24:32;;;;;;;;;;;;;;;18.20;77.95;100239.93;1731064;83;20620;-84
2022/06/19 02:27:38;;;;;;;;;;;;;;;18.56;76.60;100241.91;1729417;83;20195;-84
2022/06/19 02:30:42;;;;;;;;;;;;;;;18.96;75.08;100248.38;1729524;83;20234;-84
2022/06/19 02:33:51;;;;;;;;;;;;;;;19.39;73.21;100246.30;1731772;83;20242;-84
2022/06/19 02:36:59;;;;;;;;;;;;;;;19.82;71.09;100246.63;1729600;83;20220;-82
2022/06/19 02:40:24;;;;;;;;;;;;;;;20.21;69.39;100245.62;1729560;83;20219;-85
2022/06/19 02:43:34;;;;;;;;;;;;;;;20.57;67.76;100245.95;1731004;83;20207;-84
2022/06/19 02:46:39;;;;;;;;;;;;;;;20.98;66.17;100250.14;1731157;83;20647;-85
2022/06/19 02:49:44;;;;;;;;;;;;;;;21.36;64.75;100250.94;1730554;83;20259;-84
2022/06/19 02:52:48;;;;;;;;;;;;;;;21.71;63.38;100254.11;1729558;83;20203;-84
2022/06/19 02:55:55;;;;;;;;;;;;;;;22.02;62.08;100257.72;1731079;83;20219;-84
2022/06/19 02:58:58;;;;;;;;;;;;;;;22.31;60.86;100254.88;1730148;83;20619;-85
2022/06/19 03:02:02;;;;;;;;;;;;;;;22.61;59.56;100260.87;1731946;83;20640;-83
2022/06/19 03:05:09;;;;;;;;;;;;;;;22.91;58.61;100258.24;1732446;83;20203;-83
2022/06/19 03:08:15;;;;;;;;;;;;;;;23.20;57.35;100254.17;1732548;83;20664;-84
2022/06/19 03:11:20;;;;;;;;;;;;;;;23.44;56.63;100259.45;1732799;83;20223;-84
2022/06/19 03:14:24;;;;;;;;;;;;;;;23.66;55.82;100254.67;1732852;83;20506;-83
2022/06/19 03:17:29;;;;;;;;;;;;;;;23.78;55.28;100260.67;1731705;83;20227;-84
2022/06/19 03:20:34;;;;;;;;;;;;;;;23.85;55.05;100262.67;1730439;83;20593;-85
2022/06/19 03:23:41;;;;;;;;;;;;;;;23.88;54.95;100260.75;1725136;83;20235;-84
2022/06/19 03:26:45;;;;;;;;;;;;;;;23.89;54.86;100263.83;1725399;83;20207;-83
2022/06/19 03:29:44;;;;;;;;;;;;;;;23.82;54.57;100260.43;1723639;83;20461;-84
2022/06/19 03:32:48;;;;;;;;;;;;;;;23.66;54.94;100268.63;1747596;82;20201;-83
2022/06/19 03:35:52;;;;;;;;;;;;;;;23.55;55.59;100271.56;1754364;82;20665;-85
2022/06/19 03:38:57;;;;;;;;;;;;;;;23.53;55.36;100273.80;1753390;82;20268;-83
2022/06/19 03:42:03;;;;;;;;;;;;;;;23.54;55.79;100272.13;1753531;82;20942;-84
2022/06/19 03:45:10;;;;;;;;;;;;;;;23.67;55.85;100279.28;1755010;82;20225;-84
2022/06/19 03:48:18;;;;;;;;;;;;;;;23.78;55.25;100280.22;1753114;82;20252;-84
2022/06/19 03:51:23;;;;;;;;;;;;;;;23.80;55.07;100286.36;1754046;82;20220;-85
2022/06/19 03:54:28;;;;;;;;;;;;;;;23.91;54.80;100288.17;1755178;82;20275;-83
2022/06/19 03:57:32;;;;;;;;;;;;;;;23.90;54.81;100287.33;1755071;82;20224;-85
2022/06/19 04:00:37;;;;;;;;;;;;;;;23.84;54.89;100288.92;1753665;82;20212;-84
2022/06/19 04:03:41;;;;;;;;;;;;;;;23.78;55.21;100290.83;1755229;82;20228;-84
2022/06/19 04:06:48;;;;;;;;;;;;;;;23.75;55.61;100290.50;1753317;81;20196;-83
2022/06/19 04:09:53;;;;;;;;;;;;;;;23.75;56.17;100301.13;1753788;82;20237;-83
2022/06/19 04:12:57;;;;;;;;;;;;;;;23.82;56.47;100300.92;1753450;82;20197;-83
2022/06/19 04:16:02;;;;;;;;;;;;;;;23.80;56.32;100300.33;1753219;82;20225;-84
2022/06/19 04:19:08;;;;;;;;;;;;;;;23.70;56.69;100320.61;1754848;82;20205;-85
2022/06/19 04:22:14;;;;;;;;;;;;;;;23.55;57.44;100314.84;1753518;81;20609;-84
2022/06/19 04:25:18;;;;;;;;;;;;;;;23.40;57.96;100321.09;1744469;82;20221;-83
2022/06/19 04:28:24;;;;;;;;;;;;;;;23.30;58.66;100313.99;1742796;82;20201;-83
2022/06/19 04:31:29;;;;;;;;;;;;;;;23.26;59.19;100308.64;1744171;82;20201;-84
2022/06/19 04:34:34;;;;;;;;;;;;;;;23.25;59.28;100310.59;1744153;82;20225;-84
2022/06/19 04:37:41;;;;;;;;;;;;;;;23.21;59.53;100313.60;1742914;82;20213;-84
2022/06/19 04:40:45;;;;;;;;;;;;;;;23.23;59.82;100318.36;1742716;82;20638;-85
2022/06/19 04:43:50;;;;;;;;;;;;;;;23.17;60.07;100318.85;1744235;82;20217;-85
2022/06/19 04:46:54;;;;;;;;;;;;;;;23.18;59.82;100323.32;1744261;82;20673;-84
2022/06/19 04:49:58;;;;;;;;;;;;;;;23.15;60.58;100314.65;1743418;82;20185;-85
2022/06/19 04:53:05;;;;;;;;;;;;;;;23.21;60.70;100313.05;1742656;82;20875;-83
2022/06/19 04:56:09;;;;;;;;;;;;;;;23.34;60.53;100316.00;1744025;82;20213;-85
2022/06/19 04:59:14;;;;;;;;;;;;;;;23.42;59.81;100321.11;1742571;82;20201;-85
2022/06/19 05:02:20;;;;;;;;;;;;;;;23.53;59.61;100325.44;1719567;82;20204;-85
2022/06/19 05:05:26;;;;;;;;;;;;;;;23.61;58.50;100324.39;1701514;83;20516;-84
2022/06/19 05:08:32;;;;;;;;;;;;;;;23.71;58.27;100328.75;1700845;84;20248;-85
2022/06/19 05:11:37;;;;;;;;;;;;;;;23.87;57.50;100327.51;1702502;84;20196;-84
2022/06/19 05:14:44;;;;;;;;;;;;;;;24.00;57.21;100334.07;1702457;84;20225;-84
2022/06/19 05:17:48;;;;;;;;;;;;;;;24.14;56.32;100331.69;1740341;82;21032;-83
2022/06/19 05:20:47;;;;;;;;;;;;;;;24.27;55.92;100337.37;1732534;83;20210;-84
2022/06/19 05:23:51;;;;;;;;;;;;;;;24.45;54.77;100335.59;1727338;83;21106;-83
2022/06/19 05:26:55;;;;;;;;;;;;;;;24.60;54.69;100332.91;1717772;83;20207;-84
2022/06/19 05:30:00;;;;;;;;;;;;;;;24.73;54.08;100337.20;1716308;83;20243;-83
2022/06/19 05:33:04;;;;;;;;;;;;;;;24.91;53.50;100341.52;1716298;83;20244;-85
2022/06/19 05:36:08;;;;;;;;;;;;;;;25.05;52.16;100336.28;1717871;83;20218;-85
2022/06/19 05:39:11;;;;;;;;;;;;;;;25.16;51.42;100343.64;1718044;83;20231;-85
2022/06/19 05:42:18;;;;;;;;;;;;;;;25.26;50.18;100344.25;1717867;83;20243;-81
2022/06/19 05:45:22;;;;;;;;;;;;;;;25.34;49.76;100345.97;1716395;83;20208;-84
2022/06/19 05:48:26;;;;;;;;;;;;;;;25.41;49.29;100342.94;1716293;83;20227;-84
2022/06/19 05:51:32;;;;;;;;;;;;;;;25.44;48.31;100343.77;1716231;83;20693;-84
2022/06/19 05:54:37;;;;;;;;;;;;;;;25.53;46.98;100336.52;1716252;83;20223;-85
2022/06/19 05:57:42;;;;;;;;;;;;;;;25.67;46.93;100336.85;1716203;83;20600;-83
2022/06/19 06:00:46;;;;;;;;;;;;;;;25.80;46.73;100333.56;1717450;83;20207;-84
2022/06/19 06:03:50;;;;;;;;;;;;;;;25.91;46.80;100328.81;1718082;83;20207;-83
2022/06/19 06:06:55;;;;;;;;;;;;;;;26.10;47.29;100337.52;1717828;83;20203;-84
2022/06/19 06:10:01;;;;;;;;;;;;;;;26.23;46.37;100335.02;1717815;83;20675;-83
2022/06/19 06:13:06;;;;;;;;;;;;;;;26.36;46.12;100333.62;1717553;83;20223;-85
2022/06/19 06:16:10;;;;;;;;;;;;;;;26.42;45.08;100333.06;1717874;83;20526;-85
2022/06/19 06:19:16;;;;;;;;;;;;;;;26.44;45.46;100337.31;1717832;83;20211;-85
2022/06/19 06:22:21;;;;;;;;;;;;;;;26.53;44.78;100336.16;1718235;83;20660;-84
2022/06/19 06:25:25;;;;;;;;;;;;;;;26.52;44.56;100329.44;1724545;82;20194;-83
2022/06/19 06:28:26;;;;;;;;;;;;;;;26.50;44.54;100334.77;1730751;83;20218;-83
2022/06/19 06:31:29;;;;;;;;;;;;;;;26.41;44.20;100331.38;1729706;83;20230;-83
2022/06/19 06:34:34;;;;;;;;;;;;;;;26.14;44.98;100324.08;1730913;83;20529;-85
2022/06/19 06:37:38;;;;;;;;;;;;;;;26.09;45.06;100332.48;1730789;83;20230;-83
2022/06/19 06:40:43;;;;;;;;;;;;;;;26.11;44.86;100332.20;1730496;83;20203;-84
2022/06/19 06:43:50;;;;;;;;;;;;;;;26.14;44.12;100326.05;1730475;83;20627;-84
2022/06/19 06:46:54;;;;;;;;;;;;;;;26.26;44.09;100333.62;1729133;83;20226;-83
2022/06/19 06:49:59;;;;;;;;;;;;;;;26.36;43.30;100327.19;1730721;83;20214;-83
2022/06/19 06:53:04;;;;;;;;;;;;;;;26.47;43.51;100319.06;1730593;83;20239;-85
2022/06/19 06:56:08;;;;;;;;;;;;;;;26.66;43.46;100318.76;1706514;83;20249;-84
2022/06/19 06:59:13;;;;;;;;;;;;;;;26.81;43.32;100317.89;1694368;84;20254;-83
2022/06/19 07:02:18;;;;;;;;;;;;;;;27.01;43.96;100326.84;1709877;82;20183;-83
2022/06/19 07:05:23;;;;;;;;;;;;;;;27.16;43.77;100326.81;1710293;83;20211;-83
2022/06/19 07:08:28;;;;;;;;;;;;;;;27.25;41.90;100323.70;1725066;82;20223;-83
2022/06/19 07:11:36;;;;;;;;;;;;;;;27.32;41.94;100323.38;1723245;82;20243;-85
2022/06/19 07:14:41;;;;;;;;;;;;;;;27.49;41.66;100327.24;1712061;84;20519;-85
2022/06/19 07:17:47;;;;;;;;;;;;;;;27.69;41.12;100327.12;1732346;82;20212;-85
2022/06/19 07:20:52;;;;;;;;;;;;;;;27.75;40.42;100322.34;1740962;82;20205;-82
2022/06/19 07:23:58;;;;;;;;;;;;;;;27.79;39.97;100316.99;1739618;82;20852;-84
2022/06/19 07:27:01;;;;;;;;;;;;;;;27.86;40.62;100317.52;1739611;81;20201;-84
2022/06/19 07:30:06;;;;;;;;;;;;;;;27.86;41.03;100320.33;1741262;82;20217;-84
2022/06/19 07:33:07;;;;;;;;;;;;;;;27.91;41.43;100321.13;1739765;81;20248;-83
2022/06/19 07:36:15;;;;;;;;;;;;;;;27.92;40.10;100317.19;1741692;82;20229;-84
2022/06/19 07:39:21;;;;;;;;;;;;;;;28.00;39.39;100317.14;1741063;82;20300;-84
2022/06/19 07:42:26;;;;;;;;;;;;;;;28.08;38.95;100320.72;1740730;82;20225;-84
2022/06/19 07:45:31;;;;;;;;;;;;;;;28.19;37.96;100320.09;1741718;82;20602;-83
2022/06/19 07:51:57;;;;;;;;;;;;;;;28.31;38.20;100322.52;1740073;82;20225;-84
2022/06/19 07:55:01;;;;;;;;;;;;;;;28.36;37.20;100322.50;1740696;82;20206;-83
2022/06/19 07:58:07;;;;;;;;;;;;;;;28.31;36.50;100317.73;1741667;82;20205;-84
2022/06/19 08:01:12;;;;;;;;;;;;;;;28.25;36.46;100320.31;1741233;82;20233;-84
2022/06/19 08:04:18;;;;;;;;;;;;;;;28.21;36.54;100315.84;1739820;82;20201;-84
2022/06/19 08:07:23;;;;;;;;;;;;;;;28.31;37.98;100316.89;1740994;82;20244;-85
2022/06/19 08:10:37;;;;;;;;;;;;;;;28.46;38.94;100322.41;1739921;82;20209;-85
2022/06/19 08:13:45;;;;;;;;;;;;;;;28.65;37.05;100321.94;1739427;82;20643;-84
2022/06/19 08:16:49;;;;;;;;;;;;;;;28.71;35.74;100315.15;1741427;82;20264;-86
2022/06/19 08:19:54;;;;;;;;;;;;;;;28.81;35.37;100311.95;1741709;82;20650;-84
2022/06/19 08:22:58;;;;;;;;;;;;;;;28.90;35.10;100314.39;1739946;82;20201;-84
2022/06/19 08:26:01;;;;;;;;;;;;;;;28.97;34.56;100316.30;1739575;82;20213;-83
2022/06/19 08:29:02;;;;;;;;;;;;;;;28.99;33.87;100311.23;1717631;83;20672;-85
2022/06/19 08:31:54;;;;;;;;;;;;;;;28.93;33.95;100303.35;1718973;83;20231;-84
2022/06/19 08:35:00;;;;;;;;;;;;;;;28.95;34.61;100305.92;1750815;82;20205;-83
2022/06/19 08:38:09;;;;;;;;;;;;;;;28.99;34.64;100304.19;1750662;82;20253;-83
2022/06/19 08:41:43;;;;;;;;;;;;;;;29.12;34.50;100307.67;1750644;82;20662;-85
2022/06/19 08:45:21;;;;;;;;;;;;;;;29.28;35.15;100303.55;1748987;82;20229;-85
2022/06/19 08:48:30;;;;;;;;;;;;;;;29.43;34.83;100293.22;1690819;85;20252;-84
2022/06/19 08:52:12;;;;;;;;;;;;;;;29.52;35.14;100297.87;1691788;85;20646;-85
2022/06/19 08:55:30;;;;;;;;;;;;;;;29.69;35.25;100299.34;1654151;86;20265;-85
2022/06/19 08:58:54;;;;;;;;;;;;;;;29.83;35.15;100303.66;1655022;86;20635;-84
2022/06/19 09:02:07;;;;;;;;;;;;;;;29.84;34.43;100295.49;1711178;82;20197;-85
2022/06/19 09:09:07;;;;;;;;;;;;;;;29.56;32.66;100288.28;1709476;83;21055;-83
2022/06/19 09:12:16;;;;;;;;;;;;;;;29.20;32.55;100290.12;1716954;83;20759;-85
2022/06/19 09:15:24;;;;;;;;;;;;;;;28.88;32.75;100288.50;1665757;86;20242;-86
2022/06/19 09:18:56;;;;;;;;;;;;;;;28.72;33.16;100286.44;1676251;85;20637;-85
2022/06/19 09:22:09;;;;;;;;;;;;;;;28.51;34.00;100288.06;1749867;82;20209;-84
2022/06/19 09:25:27;;;;;;;;;;;;;;;28.28;34.35;100283.18;1748160;82;20232;-85
2022/06/19 09:28:52;;;;;;;;;;;;;;;28.10;34.80;100283.33;1741015;82;20233;-85
2022/06/19 09:32:10;;;;;;;;;;;;;;;27.89;34.68;100288.24;1740794;82;20241;-84
2022/06/19 09:35:28;;;;;;;;;;;;;;;27.84;35.35;100286.88;1741011;82;20209;-84
2022/06/19 09:38:38;;;;;;;;;;;;;;;28.03;34.90;100292.08;1725197;83;20214;-85
2022/06/19 09:41:47;;;;;;;;;;;;;;;28.22;34.86;100282.36;1689456;85;20229;-84
2022/06/19 09:44:57;;;;;;;;;;;;;;;28.39;34.14;100279.16;1696217;84;20254;-85
2022/06/19 09:48:22;;;;;;;;;;;;;;;28.48;34.03;100275.98;1722038;83;20199;-85
2022/06/19 09:51:38;;;;;;;;;;;;;;;28.55;34.60;100267.18;1728006;83;20227;-84
2022/06/19 09:54:51;;;;;;;;;;;;;;;28.59;34.26;100267.44;1740953;82;20197;-83
2022/06/19 09:58:05;;;;;;;;;;;;;;;28.61;34.33;100268.83;1739304;82;20209;-84
2022/06/19 10:01:10;;;;;;;;;;;;;;;28.71;34.66;100263.09;1739143;82;20261;-84
2022/06/19 10:04:27;;;;;;;;;;;;;;;28.85;35.45;100265.20;1757071;81;20621;-84
2022/06/19 10:07:34;;;;;;;;;;;;;;;28.94;35.69;100259.17;1757979;81;20197;-85
2022/06/19 10:10:46;;;;;;;;;;;;;;;29.14;34.59;100263.17;1739220;82;20193;-86
2022/06/19 10:13:56;;;;;;;;;;;;;;;29.34;33.44;100264.88;1739965;82;20241;-85
2022/06/19 10:17:05;;;;;;;;;;;;;;;29.37;32.98;100256.41;1739167;82;20201;-85
2022/06/19 10:20:19;;;;;;;;;;;;;;;29.14;33.23;100254.72;1738953;82;20654;-84
2022/06/19 10:23:39;;;;;;;;;;;;;;;28.95;33.48;100258.06;1757377;81;20609;-84
2022/06/19 10:26:53;;;;;;;;;;;;;;;28.99;33.68;100261.96;1757293;81;20256;-85
2022/06/19 10:30:01;;;;;;;;;;;;;;;29.04;33.34;100253.45;1746196;81;20201;-84
2022/06/19 10:33:12;;;;;;;;;;;;;;;29.18;33.12;100248.76;1746764;82;20264;-85
2022/06/19 10:36:27;;;;;;;;;;;;;;;29.38;32.82;100255.25;1746987;82;20229;-84
2022/06/19 10:39:52;;;;;;;;;;;;;;;29.56;33.09;100255.88;1747354;82;20225;-84
2022/06/19 10:43:03;;;;;;;;;;;;;;;29.71;32.99;100254.80;1728544;83;20307;-85
2022/06/19 10:46:12;;;;;;;;;;;;;;;29.53;32.87;100256.44;1729785;83;20202;-85
2022/06/19 10:49:21;;;;;;;;;;;;;;;29.41;32.98;100260.30;1728478;83;20230;-84
2022/06/19 10:52:31;;;;;;;;;;;;;;;29.30;33.02;100256.76;1729998;83;20253;-85
2022/06/19 10:55:48;;;;;;;;;;;;;;;29.12;33.30;100249.94;1728455;83;20214;-83
2022/06/19 10:58:53;;;;;;;;;;;;;;;28.99;33.61;100247.88;1728398;83;20630;-84
2022/06/19 11:05:24;;;;;;;;;;;;;;;28.84;33.78;100241.81;1680583;85;20603;-84
2022/06/19 11:08:31;;;;;;;;;;;;;;;28.71;33.59;100239.17;1683637;85;20195;-85
2022/06/19 11:11:36;;;;;;;;;;;;;;;28.54;33.81;100240.19;1711298;84;20487;-83
2022/06/19 11:14:43;;;;;;;;;;;;;;;28.44;33.69;100241.70;1710391;84;20652;-85
2022/06/19 11:17:48;;;;;;;;;;;;;;;28.28;34.26;100246.63;1714460;83;20223;-83
2022/06/19 11:21:05;;;;;;;;;;;;;;;28.18;34.33;100241.94;1715330;83;20199;-84
2022/06/19 11:24:11;;;;;;;;;;;;;;;28.18;34.39;100241.94;1714004;83;20248;-84
2022/06/19 11:27:21;;;;;;;;;;;;;;;28.16;34.24;100230.13;1713812;83;20204;-85
2022/06/19 11:30:39;;;;;;;;;;;;;;;28.10;34.48;100232.72;1696274;82;20252;-84
2022/06/19 11:33:43;;;;;;;;;;;;;;;27.97;34.68;100235.62;1688358;85;20228;-83
2022/06/19 11:36:48;;;;;;;;;;;;;;;27.87;34.77;100232.91;1688792;85;20237;-84
2022/06/19 11:39:53;;;;;;;;;;;;;;;27.78;34.78;100227.64;1688499;85;20229;-85
2022/06/19 11:43:00;;;;;;;;;;;;;;;27.75;35.36;100227.64;1687781;85;20253;-86
2022/06/19 11:46:07;;;;;;;;;;;;;;;27.72;34.85;100238.08;1688228;85;20228;-84
2022/06/19 11:49:18;;;;;;;;;;;;;;;27.74;35.47;100229.35;1679254;85;20619;-85
2022/06/19 11:52:28;;;;;;;;;;;;;;;27.86;35.07;100236.86;1680890;85;20217;-86
2022/06/19 11:55:52;;;;;;;;;;;;;;;27.93;35.21;100235.94;1679121;85;20654;-86
2022/06/19 11:59:08;;;;;;;;;;;;;;;28.08;35.09;100237.78;1680085;85;20230;-85
2022/06/19 12:02:30;;;;;;;;;;;;;;;28.25;34.03;100236.79;1680446;85;20670;-85
2022/06/19 12:05:38;;;;;;;;;;;;;;;28.40;34.30;100230.77;1679356;85;20269;-84
2022/06/19 12:09:06;;;;;;;;;;;;;;;28.58;34.23;100225.80;1680745;85;20225;-84
2022/06/19 12:12:16;;;;;;;;;;;;;;;28.76;33.99;100227.02;1680302;85;20841;-84
2022/06/19 12:15:29;;;;;;;;;;;;;;;28.91;33.18;100234.43;1660111;85;20245;-84
2022/06/19 12:18:33;;;;;;;;;;;;;;;28.94;32.97;100236.66;1680782;85;20189;-85
2022/06/19 12:21:33;;;;;;;;;;;;;;;28.89;32.66;100227.70;1679100;85;20249;-85
2022/06/19 12:24:26;;;;;;;;;;;;;;;28.89;32.63;100224.02;1680388;85;20249;-84
2022/06/19 12:27:14;;;;;;;;;;;;;;;28.94;32.99;100223.98;1680509;85;20245;-83
2022/06/19 12:30:22;;;;;;;;;;;;;;;28.99;32.72;100223.95;1682741;81;20241;-83
2022/06/19 12:33:32;;;;;;;;;;;;;;;29.00;32.44;100229.27;1679332;85;20217;-84
2022/06/19 12:36:29;;;;;;;;;;;;;;;28.96;32.31;100216.94;1679155;85;20702;-84
2022/06/19 12:39:36;;;;;;;;;;;;;;;28.89;32.49;100222.08;1680543;85;20238;-84
2022/06/19 12:43:11;;;;;;;;;;;;;;;28.85;32.51;100217.34;1680464;85;20726;-83
2022/06/19 12:46:28;;;;;;;;;;;;;;;28.86;32.61;100219.84;1675130;85;20272;-84
2022/06/19 12:49:58;;;;;;;;;;;;;;;28.90;32.52;100218.69;1678959;85;20237;-85
2022/06/19 12:53:25;;;;;;;;;;;;;;;28.92;32.46;100211.59;1680609;85;20206;-85
2022/06/19 12:56:34;;;;;;;;;;;;;;;28.91;31.92;100218.95;1679052;85;20253;-84
2022/06/19 12:59:53;;;;;;;;;;;;;;;28.89;32.25;100212.77;1680047;85;20257;-83
2022/06/19 13:03:08;;;;;;;;;;;;;;;28.93;31.78;100216.08;1680313;85;20361;-85
2022/06/19 13:06:31;;;;;;;;;;;;;;;28.98;31.92;100218.89;1679430;85;20213;-85
2022/06/19 13:09:52;;;;;;;;;;;;;;;28.99;32.07;100221.14;1678781;85;20265;-83
2022/06/19 13:13:19;;;;;;;;;;;;;;;28.91;31.54;100217.55;1678861;85;20230;-85
2022/06/19 13:16:47;;;;;;;;;;;;;;;28.83;31.68;100213.97;1679228;85;20257;-85
2022/06/19 13:20:09;;;;;;;;;;;;;;;28.79;31.94;100208.09;1680608;85;20189;-83
2022/06/19 13:23:30;;;;;;;;;;;;;;;28.80;31.30;100211.78;1680393;85;20214;-83
2022/06/19 13:30:40;;;;;;;;;;;;;;;28.90;31.83;100211.65;1679121;85;20221;-84
2022/06/19 13:33:57;;;;;;;;;;;;;;;28.96;31.95;100214.12;1641341;87;20251;-84
2022/06/19 13:37:20;;;;;;;;;;;;;;;29.09;31.24;100211.14;1641676;87;20244;-83
2022/06/19 13:40:45;;;;;;;;;;;;;;;29.08;30.03;100206.66;1643164;87;20223;-83
2022/06/19 13:44:13;;;;;;;;;;;;;;;29.11;30.73;100203.80;1642376;87;20235;-85
2022/06/19 13:47:22;;;;;;;;;;;;;;;29.23;31.88;100201.38;1658247;86;20226;-85
2022/06/19 13:50:30;;;;;;;;;;;;;;;29.33;31.77;100204.05;1671683;86;20251;-84
2022/06/19 13:53:51;;;;;;;;;;;;;;;29.40;31.33;100195.20;1671511;86;20247;-85
2022/06/19 13:57:05;;;;;;;;;;;;;;;29.43;31.11;100198.84;1670274;86;20664;-84
2022/06/19 14:00:31;;;;;;;;;;;;;;;29.47;31.03;100202.15;1670493;86;20621;-84
2022/06/19 14:07:41;;;;;;;;;;;;;;;29.60;29.40;100199.17;1671437;86;20239;-84
2022/06/19 14:10:49;;;;;;;;;;;;;;;29.55;28.47;100200.66;1671464;86;20235;-84
2022/06/19 14:14:04;;;;;;;;;;;;;;;29.45;28.73;100195.12;1671465;86;20673;-84
2022/06/19 14:17:14;;;;;;;;;;;;;;;29.35;29.42;100194.71;1670024;86;20766;-84
2022/06/19 14:20:33;;;;;;;;;;;;;;;29.18;28.35;100189.62;1669990;86;20251;-86
2022/06/19 14:23:43;;;;;;;;;;;;;;;29.06;28.51;100189.21;1669332;86;20221;-86
2022/06/19 14:27:00;;;;;;;;;;;;;;;29.00;28.92;100182.81;1680688;85;20214;-86
2022/06/19 14:30:10;;;;;;;;;;;;;;;28.99;28.85;100188.77;1639880;87;20255;-86
2022/06/19 14:33:39;;;;;;;;;;;;;;;28.93;29.52;100188.51;1683285;84;20211;-87
2022/06/19 14:36:43;;;;;;;;;;;;;;;28.89;30.30;100186.02;1658196;86;20244;-85
2022/06/19 14:39:42;;;;;;;;;;;;;;;28.78;30.07;100181.94;1757698;81;20216;-85
2022/06/19 14:42:34;;;;;;;;;;;;;;;28.74;29.53;100186.48;1757941;81;20228;-87
2022/06/19 14:45:20;;;;;;;;;;;;;;;28.76;29.97;100187.04;1757216;81;20210;-86
2022/06/19 14:48:28;;;;;;;;;;;;;;;28.77;30.49;100185.89;1723553;81;20259;-85
2022/06/19 14:51:45;;;;;;;;;;;;;;;28.80;30.17;100176.59;1695636;84;20234;-86
2022/06/19 14:55:11;;;;;;;;;;;;;;;28.81;30.01;100181.08;1722284;83;20631;-86
2022/06/19 14:58:32;;;;;;;;;;;;;;;28.73;29.98;100183.98;1722240;83;20711;-87
2022/06/19 15:01:40;;;;;;;;;;;;;;;28.61;30.21;100181.61;1730949;82;20227;-87
2022/06/19 15:04:39;;;;;;;;;;;;;;;28.49;30.04;100179.19;1755359;82;20421;-87
2022/06/19 15:07:32;;;;;;;;;;;;;;;28.42;29.64;100184.89;1753634;82;20260;-85
2022/06/19 15:10:22;;;;;;;;;;;;;;;28.30;29.66;100184.45;1755002;82;20696;-85
2022/06/19 15:13:23;;;;;;;;;;;;;;;28.19;30.11;100186.53;1755117;82;20252;-86
2022/06/19 15:16:23;;;;;;;;;;;;;;;28.12;30.03;100186.02;1746923;82;20205;-85
2022/06/19 15:19:51;;;;;;;;;;;;;;;28.03;29.76;100183.01;1690043;85;20659;-85
2022/06/19 15:23:17;;;;;;;;;;;;;;;27.96;29.80;100183.94;1689627;85;20249;-85
2022/06/19 15:26:26;;;;;;;;;;;;;;;27.89;29.89;100184.83;1689581;85;20234;-85
2022/06/19 15:29:45;;;;;;;;;;;;;;;27.81;30.07;100184.91;1689973;85;20763;-85
2022/06/19 15:33:05;;;;;;;;;;;;;;;27.74;31.14;100181.02;1722753;81;20225;-87
2022/06/19 15:36:11;;;;;;;;;;;;;;;27.68;30.91;100186.95;1724381;83;20221;-86
2022/06/19 15:39:19;;;;;;;;;;;;;;;27.63;31.31;100181.38;1724702;83;20254;-87
2022/06/19 15:42:29;;;;;;;;;;;;;;;27.59;31.73;100183.92;1724558;83;20210;-84
2022/06/19 15:45:53;;;;;;;;;;;;;;;27.56;31.32;100183.09;1724348;83;20238;-85
2022/06/19 15:48:56;;;;;;;;;;;;;;;27.51;31.37;100181.72;1723537;83;20202;-85
2022/06/19 15:52:06;;;;;;;;;;;;;;;27.43;31.75;100186.01;1723118;83;20226;-85
2022/06/19 15:55:27;;;;;;;;;;;;;;;27.37;31.89;100187.72;1724472;83;20250;-84
2022/06/19 15:58:46;;;;;;;;;;;;;;;27.32;32.29;100188.59;1722982;83;20222;-86
2022/06/19 16:01:53;;;;;;;;;;;;;;;27.23;33.48;100188.36;1723210;83;20245;-87
2022/06/19 16:05:00;;;;;;;;;;;;;;;27.15;34.23;100190.95;1724190;83;20792;-85
2022/06/19 16:07:57;;;;;;;;;;;;;;;27.06;34.05;100186.48;1723068;83;20711;-86
2022/06/19 16:11:05;;;;;;;;;;;;;;;26.97;34.57;100186.23;1724084;83;20650;-86
2022/06/19 16:14:14;;;;;;;;;;;;;;;26.90;34.54;100189.91;1724101;83;20679;-85
2022/06/19 16:17:30;;;;;;;;;;;;;;;26.83;34.68;100192.76;1723033;83;20234;-84
2022/06/19 16:20:44;;;;;;;;;;;;;;;26.76;34.88;100196.69;1723110;83;20227;-86
2022/06/19 16:23:52;;;;;;;;;;;;;;;26.71;34.55;100193.07;1723177;83;20230;-85
2022/06/19 16:26:58;;;;;;;;;;;;;;;26.63;35.23;100197.33;1723105;83;20222;-85
2022/06/19 16:30:03;;;;;;;;;;;;;;;26.56;36.07;100191.73;1724894;83;20202;-86